Terminal Aerodrome Forecast
Issued by NWS

Home | Current Version | Previous Version | Text Only | Print | Product List | Glossary On
Versions: 1 2 3 4 5 6 7 8 9 10 11 12 13 14 15
832
FTUS41 KBGM 240546
TAFELM
TAF
KELM 240546Z 2406/2506 16008KT P6SM OVC100
     FM241000 18008KT P6SM OVC045 WS020/23045KT
     FM241200 20010KT 4SM -FZRA BR OVC025 WS020/23045KT
     FM241500 22012G22KT P6SM SCT015 OVC025
     FM250000 24005KT P6SM OVC012=

USA.gov is the U.S. government's official web portal to all federal, state and local government web resources and services.